Mineral, Texas
Current Conditions -  °F | °C
As of 1:15 AM on Thursday 18 Dec 2014 (Local Time) from KBEA Reporting Station
Overcast Overcast  
Wind Chill: 66°   Ceiling: 2700
Heat Index: 66°   Visibility: 10mi
Dew Point: 66°   Wind: 5mph
Humidity: 100%   Direction: 110°ESE
Pressure: 30.03"   Gusts: NA
Location:  28.55°N, 97.9°W
Report Text: KBEA 180715Z AUTO 11004KT 10SM SCT022 BKN027 OVC070 19/19 A3003 RMK AO2 T01900190
Loading
Personal Weather Stations






























Interactive Weather Map New forecast layout! Learn more

10-Day Weather Forecast

Advertisements
Track Severe Weather on mobile